Albion, Indiana
Current Conditions -  °F | °C
As of 3:15 PM on Sunday 25 Jan 2015 (Local Time) from KGWB Reporting Station
Light Snow Light Snow  
Wind Chill: 15°   Ceiling: 800
Heat Index: 27°   Visibility: 0.75mi
Dew Point: 23°   Wind: 15mph
Humidity: 86%   Direction: 60°ENE
Pressure: 29.79"   Gusts: 24mph
Location:  41.4°N, 85.42°W
Report Text: KGWB 252015Z AUTO 06013G21KT 3/4SM -SN OVC008 M03/M05 A2979 RMK AO2
Loading
Personal Weather Stations






























Interactive Weather Map New forecast layout! Learn more

10-Day Weather Forecast

Advertisements
Track Severe Weather on mobile